sensor_id;sensor_type;location;lat;lon;timestamp;P1;durP1;ratioP1;P2;durP2;ratioP2
4424;SDS011;2225;53.568;13.266;2023-04-23T00:02:14;19.23;;;12.00;;
4424;SDS011;2225;53.568;13.266;2023-04-23T00:04:46;19.40;;;11.63;;
4424;SDS011;2225;53.568;13.266;2023-04-23T00:07:20;20.50;;;12.80;;
4424;SDS011;2225;53.568;13.266;2023-04-23T00:09:49;29.33;;;12.80;;
4424;SDS011;2225;53.568;13.266;2023-04-23T00:12:18;33.53;;;12.30;;
4424;SDS011;2225;53.568;13.266;2023-04-23T00:14:46;17.23;;;11.17;;
4424;SDS011;2225;53.568;13.266;2023-04-23T00:17:13;19.30;;;11.50;;
4424;SDS011;2225;53.568;13.266;2023-04-23T00:19:40;20.20;;;10.73;;
4424;SDS011;2225;53.568;13.266;2023-04-23T00:22:07;21.23;;;11.40;;
4424;SDS011;2225;53.568;13.266;2023-04-23T00:24:34;24.23;;;12.03;;
4424;SDS011;2225;53.568;13.266;2023-04-23T00:27:04;18.50;;;10.60;;
4424;SDS011;2225;53.568;13.266;2023-04-23T00:29:31;25.10;;;11.67;;
4424;SDS011;2225;53.568;13.266;2023-04-23T00:31:58;19.70;;;10.97;;
4424;SDS011;2225;53.568;13.266;2023-04-23T00:34:25;16.33;;;10.47;;
4424;SDS011;2225;53.568;13.266;2023-04-23T00:36:53;23.47;;;12.27;;
4424;SDS011;2225;53.568;13.266;2023-04-23T00:39:20;15.80;;;11.00;;
4424;SDS011;2225;53.568;13.266;2023-04-23T00:41:48;24.40;;;12.37;;
4424;SDS011;2225;53.568;13.266;2023-04-23T00:44:15;21.03;;;11.20;;
4424;SDS011;2225;53.568;13.266;2023-04-23T00:46:43;20.67;;;11.77;;
4424;SDS011;2225;53.568;13.266;2023-04-23T00:49:10;20.87;;;11.57;;
4424;SDS011;2225;53.568;13.266;2023-04-23T00:51:39;28.40;;;11.83;;
4424;SDS011;2225;53.568;13.266;2023-04-23T00:54:06;18.10;;;11.70;;
4424;SDS011;2225;53.568;13.266;2023-04-23T00:56:32;17.60;;;10.90;;
4424;SDS011;2225;53.568;13.266;2023-04-23T00:59:00;26.80;;;11.67;;
4424;SDS011;2225;53.568;13.266;2023-04-23T01:01:28;20.07;;;13.23;;
4424;SDS011;2225;53.568;13.266;2023-04-23T01:03:55;18.20;;;10.87;;
4424;SDS011;2225;53.568;13.266;2023-04-23T01:06:23;25.30;;;12.70;;
4424;SDS011;2225;53.568;13.266;2023-04-23T01:08:50;17.13;;;11.80;;
4424;SDS011;2225;53.568;13.266;2023-04-23T01:11:17;20.63;;;12.47;;
4424;SDS011;2225;53.568;13.266;2023-04-23T01:13:44;22.37;;;12.10;;
4424;SDS011;2225;53.568;13.266;2023-04-23T01:16:11;25.83;;;12.83;;
4424;SDS011;2225;53.568;13.266;2023-04-23T01:18:38;20.30;;;12.07;;
4424;SDS011;2225;53.568;13.266;2023-04-23T01:21:07;22.27;;;11.73;;
4424;SDS011;2225;53.568;13.266;2023-04-23T01:23:37;25.63;;;12.10;;
4424;SDS011;2225;53.568;13.266;2023-04-23T01:26:04;18.77;;;11.03;;
4424;SDS011;2225;53.568;13.266;2023-04-23T01:28:31;21.10;;;12.30;;
4424;SDS011;2225;53.568;13.266;2023-04-23T01:30:59;26.23;;;12.87;;
4424;SDS011;2225;53.568;13.266;2023-04-23T01:33:29;19.43;;;12.70;;
4424;SDS011;2225;53.568;13.266;2023-04-23T01:35:57;27.83;;;13.83;;
4424;SDS011;2225;53.568;13.266;2023-04-23T01:38:25;20.60;;;12.17;;
4424;SDS011;2225;53.568;13.266;2023-04-23T01:40:56;19.73;;;11.80;;
4424;SDS011;2225;53.568;13.266;2023-04-23T01:43:23;20.93;;;13.03;;
4424;SDS011;2225;53.568;13.266;2023-04-23T01:45:50;23.50;;;12.83;;
4424;SDS011;2225;53.568;13.266;2023-04-23T01:48:18;21.43;;;13.43;;
4424;SDS011;2225;53.568;13.266;2023-04-23T01:50:46;26.50;;;14.27;;
4424;SDS011;2225;53.568;13.266;2023-04-23T01:53:13;19.37;;;12.37;;
4424;SDS011;2225;53.568;13.266;2023-04-23T01:55:41;23.93;;;12.67;;
4424;SDS011;2225;53.568;13.266;2023-04-23T01:58:11;20.43;;;12.67;;
4424;SDS011;2225;53.568;13.266;2023-04-23T02:00:38;28.60;;;14.63;;
4424;SDS011;2225;53.568;13.266;2023-04-23T02:03:05;23.97;;;12.73;;
4424;SDS011;2225;53.568;13.266;2023-04-23T02:05:33;22.77;;;12.43;;
4424;SDS011;2225;53.568;13.266;2023-04-23T02:08:01;22.77;;;13.03;;
4424;SDS011;2225;53.568;13.266;2023-04-23T02:10:28;18.50;;;11.87;;
4424;SDS011;2225;53.568;13.266;2023-04-23T02:12:57;18.73;;;12.30;;
4424;SDS011;2225;53.568;13.266;2023-04-23T02:15:24;27.03;;;14.33;;
4424;SDS011;2225;53.568;13.266;2023-04-23T02:17:51;30.93;;;13.27;;
4424;SDS011;2225;53.568;13.266;2023-04-23T02:20:19;22.33;;;14.10;;
4424;SDS011;2225;53.568;13.266;2023-04-23T02:22:47;22.90;;;12.00;;
4424;SDS011;2225;53.568;13.266;2023-04-23T02:25:16;20.73;;;12.83;;
4424;SDS011;2225;53.568;13.266;2023-04-23T02:27:44;26.80;;;13.90;;
4424;SDS011;2225;53.568;13.266;2023-04-23T02:30:11;25.17;;;12.43;;
4424;SDS011;2225;53.568;13.266;2023-04-23T02:32:38;19.50;;;12.60;;
4424;SDS011;2225;53.568;13.266;2023-04-23T02:35:05;26.67;;;12.87;;
4424;SDS011;2225;53.568;13.266;2023-04-23T02:37:34;25.63;;;13.00;;
4424;SDS011;2225;53.568;13.266;2023-04-23T02:40:02;19.80;;;11.93;;
4424;SDS011;2225;53.568;13.266;2023-04-23T02:42:33;19.60;;;12.40;;
4424;SDS011;2225;53.568;13.266;2023-04-23T02:45:00;19.60;;;11.20;;
4424;SDS011;2225;53.568;13.266;2023-04-23T02:47:27;22.73;;;13.47;;
4424;SDS011;2225;53.568;13.266;2023-04-23T02:49:55;19.53;;;12.40;;
4424;SDS011;2225;53.568;13.266;2023-04-23T02:52:22;21.53;;;11.50;;
4424;SDS011;2225;53.568;13.266;2023-04-23T02:54:49;20.40;;;12.97;;
4424;SDS011;2225;53.568;13.266;2023-04-23T02:57:17;19.20;;;12.90;;
4424;SDS011;2225;53.568;13.266;2023-04-23T02:59:44;20.20;;;11.50;;
4424;SDS011;2225;53.568;13.266;2023-04-23T03:02:12;19.80;;;10.93;;
4424;SDS011;2225;53.568;13.266;2023-04-23T03:04:39;19.60;;;12.13;;
4424;SDS011;2225;53.568;13.266;2023-04-23T03:07:07;18.47;;;12.33;;
4424;SDS011;2225;53.568;13.266;2023-04-23T03:09:34;18.30;;;11.30;;
4424;SDS011;2225;53.568;13.266;2023-04-23T03:12:01;17.80;;;10.83;;
4424;SDS011;2225;53.568;13.266;2023-04-23T03:14:28;21.60;;;11.63;;
4424;SDS011;2225;53.568;13.266;2023-04-23T03:16:55;19.97;;;11.90;;
4424;SDS011;2225;53.568;13.266;2023-04-23T03:19:22;22.27;;;12.30;;
4424;SDS011;2225;53.568;13.266;2023-04-23T03:21:49;20.33;;;12.37;;
4424;SDS011;2225;53.568;13.266;2023-04-23T03:24:16;23.37;;;13.53;;
4424;SDS011;2225;53.568;13.266;2023-04-23T03:26:43;20.23;;;13.10;;
4424;SDS011;2225;53.568;13.266;2023-04-23T03:29:10;20.20;;;13.47;;
4424;SDS011;2225;53.568;13.266;2023-04-23T03:31:37;21.00;;;12.90;;
4424;SDS011;2225;53.568;13.266;2023-04-23T03:34:07;20.10;;;12.73;;
4424;SDS011;2225;53.568;13.266;2023-04-23T03:36:35;22.53;;;12.00;;
4424;SDS011;2225;53.568;13.266;2023-04-23T03:39:02;20.67;;;12.63;;
4424;SDS011;2225;53.568;13.266;2023-04-23T03:41:42;26.53;;;12.03;;
4424;SDS011;2225;53.568;13.266;2023-04-23T03:44:11;16.83;;;11.50;;
4424;SDS011;2225;53.568;13.266;2023-04-23T03:46:41;19.00;;;12.47;;
4424;SDS011;2225;53.568;13.266;2023-04-23T03:49:08;19.47;;;12.10;;
4424;SDS011;2225;53.568;13.266;2023-04-23T03:51:35;18.13;;;12.07;;
4424;SDS011;2225;53.568;13.266;2023-04-23T03:54:02;18.17;;;12.20;;
4424;SDS011;2225;53.568;13.266;2023-04-23T03:56:39;17.70;;;11.37;;
4424;SDS011;2225;53.568;13.266;2023-04-23T03:59:13;21.40;;;12.07;;
4424;SDS011;2225;53.568;13.266;2023-04-23T04:01:42;15.57;;;10.90;;
4424;SDS011;2225;53.568;13.266;2023-04-23T04:04:09;36.87;;;11.43;;
4424;SDS011;2225;53.568;13.266;2023-04-23T04:06:37;17.60;;;12.13;;
4424;SDS011;2225;53.568;13.266;2023-04-23T04:09:04;19.87;;;12.90;;
4424;SDS011;2225;53.568;13.266;2023-04-23T04:11:31;20.93;;;13.80;;
4424;SDS011;2225;53.568;13.266;2023-04-23T04:13:58;29.70;;;13.43;;
4424;SDS011;2225;53.568;13.266;2023-04-23T04:16:26;25.80;;;12.80;;
4424;SDS011;2225;53.568;13.266;2023-04-23T04:18:53;26.00;;;12.50;;
4424;SDS011;2225;53.568;13.266;2023-04-23T04:21:21;22.40;;;11.90;;
4424;SDS011;2225;53.568;13.266;2023-04-23T04:23:48;19.90;;;12.00;;
4424;SDS011;2225;53.568;13.266;2023-04-23T04:26:16;18.30;;;12.30;;
4424;SDS011;2225;53.568;13.266;2023-04-23T04:28:43;21.60;;;11.87;;
4424;SDS011;2225;53.568;13.266;2023-04-23T04:31:11;23.83;;;11.40;;
4424;SDS011;2225;53.568;13.266;2023-04-23T04:33:41;20.30;;;11.90;;
4424;SDS011;2225;53.568;13.266;2023-04-23T04:36:08;18.47;;;12.07;;
4424;SDS011;2225;53.568;13.266;2023-04-23T04:38:35;19.47;;;11.73;;
4424;SDS011;2225;53.568;13.266;2023-04-23T04:41:04;17.20;;;11.43;;
4424;SDS011;2225;53.568;13.266;2023-04-23T04:43:33;19.30;;;11.10;;
4424;SDS011;2225;53.568;13.266;2023-04-23T04:46:00;16.70;;;11.90;;
4424;SDS011;2225;53.568;13.266;2023-04-23T04:48:27;20.23;;;12.40;;
4424;SDS011;2225;53.568;13.266;2023-04-23T04:50:54;17.00;;;10.70;;
4424;SDS011;2225;53.568;13.266;2023-04-23T04:53:21;23.00;;;10.70;;
4424;SDS011;2225;53.568;13.266;2023-04-23T04:55:47;16.67;;;10.60;;
4424;SDS011;2225;53.568;13.266;2023-04-23T04:58:15;18.87;;;11.47;;
4424;SDS011;2225;53.568;13.266;2023-04-23T05:00:42;16.80;;;10.57;;
4424;SDS011;2225;53.568;13.266;2023-04-23T05:03:09;15.60;;;10.77;;
4424;SDS011;2225;53.568;13.266;2023-04-23T05:05:39;21.53;;;12.27;;
4424;SDS011;2225;53.568;13.266;2023-04-23T05:08:06;24.20;;;10.90;;
4424;SDS011;2225;53.568;13.266;2023-04-23T05:10:33;18.60;;;12.03;;
4424;SDS011;2225;53.568;13.266;2023-04-23T05:13:00;21.80;;;10.60;;
4424;SDS011;2225;53.568;13.266;2023-04-23T05:15:27;18.57;;;10.60;;
4424;SDS011;2225;53.568;13.266;2023-04-23T05:17:54;18.27;;;11.60;;
4424;SDS011;2225;53.568;13.266;2023-04-23T05:20:21;20.70;;;11.37;;
4424;SDS011;2225;53.568;13.266;2023-04-23T05:22:48;23.70;;;11.50;;
4424;SDS011;2225;53.568;13.266;2023-04-23T05:25:15;16.90;;;10.83;;
4424;SDS011;2225;53.568;13.266;2023-04-23T05:27:42;15.10;;;10.37;;
4424;SDS011;2225;53.568;13.266;2023-04-23T05:30:09;17.40;;;10.80;;
4424;SDS011;2225;53.568;13.266;2023-04-23T05:32:36;26.83;;;10.43;;
4424;SDS011;2225;53.568;13.266;2023-04-23T05:35:04;16.03;;;9.30;;
4424;SDS011;2225;53.568;13.266;2023-04-23T05:37:32;18.43;;;10.70;;
4424;SDS011;2225;53.568;13.266;2023-04-23T05:39:59;29.97;;;10.87;;
4424;SDS011;2225;53.568;13.266;2023-04-23T05:42:27;19.53;;;11.83;;
4424;SDS011;2225;53.568;13.266;2023-04-23T05:44:54;16.97;;;10.53;;
4424;SDS011;2225;53.568;13.266;2023-04-23T05:47:21;17.50;;;10.23;;
4424;SDS011;2225;53.568;13.266;2023-04-23T05:49:48;18.23;;;10.20;;
4424;SDS011;2225;53.568;13.266;2023-04-23T05:52:15;21.00;;;11.10;;
4424;SDS011;2225;53.568;13.266;2023-04-23T05:54:42;21.90;;;12.27;;
4424;SDS011;2225;53.568;13.266;2023-04-23T05:57:10;15.77;;;11.17;;
4424;SDS011;2225;53.568;13.266;2023-04-23T05:59:37;19.27;;;10.37;;
4424;SDS011;2225;53.568;13.266;2023-04-23T06:02:04;14.40;;;9.43;;
4424;SDS011;2225;53.568;13.266;2023-04-23T06:04:32;19.20;;;11.10;;
4424;SDS011;2225;53.568;13.266;2023-04-23T06:07:00;17.30;;;10.53;;
4424;SDS011;2225;53.568;13.266;2023-04-23T06:09:26;21.50;;;10.50;;
4424;SDS011;2225;53.568;13.266;2023-04-23T06:11:53;15.67;;;10.50;;
4424;SDS011;2225;53.568;13.266;2023-04-23T06:14:20;16.47;;;9.50;;
4424;SDS011;2225;53.568;13.266;2023-04-23T06:16:47;20.50;;;11.67;;
4424;SDS011;2225;53.568;13.266;2023-04-23T06:19:14;16.57;;;10.53;;
4424;SDS011;2225;53.568;13.266;2023-04-23T06:21:42;14.93;;;9.97;;
4424;SDS011;2225;53.568;13.266;2023-04-23T06:24:08;17.53;;;11.00;;
4424;SDS011;2225;53.568;13.266;2023-04-23T06:26:35;17.23;;;11.30;;
4424;SDS011;2225;53.568;13.266;2023-04-23T06:29:10;19.83;;;11.37;;
4424;SDS011;2225;53.568;13.266;2023-04-23T06:31:48;20.90;;;11.33;;
4424;SDS011;2225;53.568;13.266;2023-04-23T06:34:15;16.10;;;10.30;;
4424;SDS011;2225;53.568;13.266;2023-04-23T06:36:42;16.20;;;11.83;;
4424;SDS011;2225;53.568;13.266;2023-04-23T06:39:09;18.30;;;10.20;;
4424;SDS011;2225;53.568;13.266;2023-04-23T06:41:35;15.53;;;11.23;;
4424;SDS011;2225;53.568;13.266;2023-04-23T06:44:20;20.83;;;12.20;;
4424;SDS011;2225;53.568;13.266;2023-04-23T06:46:52;24.23;;;11.67;;
4424;SDS011;2225;53.568;13.266;2023-04-23T06:49:19;19.87;;;12.13;;
4424;SDS011;2225;53.568;13.266;2023-04-23T06:51:46;21.30;;;11.60;;
4424;SDS011;2225;53.568;13.266;2023-04-23T06:54:13;16.90;;;10.87;;
4424;SDS011;2225;53.568;13.266;2023-04-23T06:56:40;21.60;;;12.23;;
4424;SDS011;2225;53.568;13.266;2023-04-23T06:59:07;20.50;;;12.23;;
4424;SDS011;2225;53.568;13.266;2023-04-23T07:01:42;18.73;;;12.03;;
4424;SDS011;2225;53.568;13.266;2023-04-23T07:04:09;19.00;;;11.60;;
4424;SDS011;2225;53.568;13.266;2023-04-23T07:06:36;16.03;;;11.87;;
4424;SDS011;2225;53.568;13.266;2023-04-23T07:09:03;23.93;;;12.87;;
4424;SDS011;2225;53.568;13.266;2023-04-23T07:11:31;21.23;;;13.00;;
4424;SDS011;2225;53.568;13.266;2023-04-23T07:13:59;19.27;;;12.20;;
4424;SDS011;2225;53.568;13.266;2023-04-23T07:16:26;19.53;;;12.47;;
4424;SDS011;2225;53.568;13.266;2023-04-23T07:18:57;24.83;;;13.30;;
4424;SDS011;2225;53.568;13.266;2023-04-23T07:21:26;17.40;;;12.13;;
4424;SDS011;2225;53.568;13.266;2023-04-23T07:23:57;20.73;;;13.00;;
4424;SDS011;2225;53.568;13.266;2023-04-23T07:26:25;24.30;;;13.90;;
4424;SDS011;2225;53.568;13.266;2023-04-23T07:28:53;20.77;;;13.90;;
4424;SDS011;2225;53.568;13.266;2023-04-23T07:31:20;31.13;;;13.97;;
4424;SDS011;2225;53.568;13.266;2023-04-23T07:33:47;20.93;;;13.47;;
4424;SDS011;2225;53.568;13.266;2023-04-23T07:36:14;23.97;;;13.70;;
4424;SDS011;2225;53.568;13.266;2023-04-23T07:38:41;21.13;;;14.13;;
4424;SDS011;2225;53.568;13.266;2023-04-23T07:41:08;24.63;;;14.17;;
4424;SDS011;2225;53.568;13.266;2023-04-23T07:43:35;19.67;;;13.30;;
4424;SDS011;2225;53.568;13.266;2023-04-23T07:46:02;22.30;;;13.57;;
4424;SDS011;2225;53.568;13.266;2023-04-23T07:48:30;20.97;;;14.70;;
4424;SDS011;2225;53.568;13.266;2023-04-23T07:50:57;18.27;;;12.87;;
4424;SDS011;2225;53.568;13.266;2023-04-23T07:53:24;24.07;;;13.03;;
4424;SDS011;2225;53.568;13.266;2023-04-23T07:55:51;20.73;;;12.63;;
4424;SDS011;2225;53.568;13.266;2023-04-23T07:58:18;18.03;;;12.97;;
4424;SDS011;2225;53.568;13.266;2023-04-23T08:00:45;16.87;;;12.43;;
4424;SDS011;2225;53.568;13.266;2023-04-23T08:03:12;18.90;;;13.50;;
4424;SDS011;2225;53.568;13.266;2023-04-23T08:05:39;21.00;;;13.23;;
4424;SDS011;2225;53.568;13.266;2023-04-23T08:08:07;18.67;;;12.80;;
4424;SDS011;2225;53.568;13.266;2023-04-23T08:10:34;20.33;;;13.40;;
4424;SDS011;2225;53.568;13.266;2023-04-23T08:13:01;21.50;;;13.40;;
4424;SDS011;2225;53.568;13.266;2023-04-23T08:15:28;25.63;;;13.40;;
4424;SDS011;2225;53.568;13.266;2023-04-23T08:17:55;20.77;;;14.60;;
4424;SDS011;2225;53.568;13.266;2023-04-23T08:20:22;22.03;;;13.37;;
4424;SDS011;2225;53.568;13.266;2023-04-23T08:22:49;24.47;;;14.70;;
4424;SDS011;2225;53.568;13.266;2023-04-23T08:25:18;16.60;;;12.40;;
4424;SDS011;2225;53.568;13.266;2023-04-23T08:27:46;23.33;;;14.07;;
4424;SDS011;2225;53.568;13.266;2023-04-23T08:30:13;20.33;;;13.40;;
4424;SDS011;2225;53.568;13.266;2023-04-23T08:32:40;23.60;;;15.20;;
4424;SDS011;2225;53.568;13.266;2023-04-23T08:35:07;28.23;;;13.57;;
4424;SDS011;2225;53.568;13.266;2023-04-23T08:37:34;24.17;;;17.17;;
4424;SDS011;2225;53.568;13.266;2023-04-23T08:40:01;21.07;;;14.73;;
4424;SDS011;2225;53.568;13.266;2023-04-23T08:43:05;27.23;;;14.67;;
4424;SDS011;2225;53.568;13.266;2023-04-23T08:45:27;23.63;;;15.40;;
4424;SDS011;2225;53.568;13.266;2023-04-23T08:47:57;25.23;;;15.40;;
4424;SDS011;2225;53.568;13.266;2023-04-23T08:50:27;26.30;;;14.67;;
4424;SDS011;2225;53.568;13.266;2023-04-23T08:52:56;23.00;;;14.50;;
4424;SDS011;2225;53.568;13.266;2023-04-23T08:55:23;23.83;;;14.93;;
4424;SDS011;2225;53.568;13.266;2023-04-23T08:57:51;20.33;;;13.50;;
4424;SDS011;2225;53.568;13.266;2023-04-23T09:00:19;24.80;;;16.00;;
4424;SDS011;2225;53.568;13.266;2023-04-23T09:02:48;23.10;;;14.80;;
4424;SDS011;2225;53.568;13.266;2023-04-23T09:05:15;21.10;;;13.10;;
4424;SDS011;2225;53.568;13.266;2023-04-23T09:07:43;22.17;;;12.93;;
4424;SDS011;2225;53.568;13.266;2023-04-23T09:10:10;17.83;;;12.10;;
4424;SDS011;2225;53.568;13.266;2023-04-23T09:12:42;19.90;;;12.50;;
4424;SDS011;2225;53.568;13.266;2023-04-23T09:15:10;15.60;;;11.07;;
4424;SDS011;2225;53.568;13.266;2023-04-23T09:17:42;14.57;;;10.60;;
4424;SDS011;2225;53.568;13.266;2023-04-23T09:20:11;15.37;;;9.20;;
4424;SDS011;2225;53.568;13.266;2023-04-23T09:25:15;12.00;;;8.17;;
4424;SDS011;2225;53.568;13.266;2023-04-23T09:27:45;14.13;;;6.93;;
4424;SDS011;2225;53.568;13.266;2023-04-23T09:30:13;14.53;;;6.50;;
4424;SDS011;2225;53.568;13.266;2023-04-23T09:32:42;9.27;;;5.20;;
4424;SDS011;2225;53.568;13.266;2023-04-23T09:35:15;8.23;;;4.00;;
4424;SDS011;2225;53.568;13.266;2023-04-23T09:37:46;9.63;;;3.90;;
4424;SDS011;2225;53.568;13.266;2023-04-23T09:40:17;7.00;;;3.63;;
4424;SDS011;2225;53.568;13.266;2023-04-23T09:42:48;11.77;;;3.30;;
4424;SDS011;2225;53.568;13.266;2023-04-23T09:45:18;5.90;;;3.00;;
4424;SDS011;2225;53.568;13.266;2023-04-23T09:47:49;5.40;;;2.23;;
4424;SDS011;2225;53.568;13.266;2023-04-23T09:50:37;5.80;;;2.73;;
4424;SDS011;2225;53.568;13.266;2023-04-23T09:53:06;6.50;;;2.50;;
4424;SDS011;2225;53.568;13.266;2023-04-23T09:55:36;8.50;;;3.17;;
4424;SDS011;2225;53.568;13.266;2023-04-23T09:58:09;5.40;;;2.23;;
4424;SDS011;2225;53.568;13.266;2023-04-23T10:00:41;6.70;;;2.60;;
4424;SDS011;2225;53.568;13.266;2023-04-23T10:03:08;5.80;;;2.63;;
4424;SDS011;2225;53.568;13.266;2023-04-23T10:05:37;5.13;;;2.00;;
4424;SDS011;2225;53.568;13.266;2023-04-23T10:08:26;5.53;;;2.80;;
4424;SDS011;2225;53.568;13.266;2023-04-23T10:10:53;4.90;;;2.27;;
4424;SDS011;2225;53.568;13.266;2023-04-23T10:13:35;7.40;;;3.47;;
4424;SDS011;2225;53.568;13.266;2023-04-23T10:16:03;5.87;;;2.87;;
4424;SDS011;2225;53.568;13.266;2023-04-23T10:18:47;8.73;;;3.30;;
4424;SDS011;2225;53.568;13.266;2023-04-23T10:21:17;6.77;;;3.37;;
4424;SDS011;2225;53.568;13.266;2023-04-23T10:23:46;5.53;;;2.67;;
4424;SDS011;2225;53.568;13.266;2023-04-23T10:26:15;6.53;;;2.93;;
4424;SDS011;2225;53.568;13.266;2023-04-23T10:28:46;5.87;;;2.93;;
4424;SDS011;2225;53.568;13.266;2023-04-23T10:31:14;7.03;;;3.17;;
4424;SDS011;2225;53.568;13.266;2023-04-23T10:33:41;5.67;;;2.70;;
4424;SDS011;2225;53.568;13.266;2023-04-23T10:36:22;6.43;;;2.80;;
4424;SDS011;2225;53.568;13.266;2023-04-23T10:38:51;6.57;;;3.30;;
4424;SDS011;2225;53.568;13.266;2023-04-23T10:41:24;6.10;;;3.03;;
4424;SDS011;2225;53.568;13.266;2023-04-23T10:44:00;6.10;;;3.53;;
4424;SDS011;2225;53.568;13.266;2023-04-23T10:46:28;6.00;;;2.97;;
4424;SDS011;2225;53.568;13.266;2023-04-23T10:49:07;6.23;;;3.17;;
4424;SDS011;2225;53.568;13.266;2023-04-23T10:51:44;6.13;;;3.47;;
4424;SDS011;2225;53.568;13.266;2023-04-23T10:54:18;5.67;;;2.93;;
4424;SDS011;2225;53.568;13.266;2023-04-23T10:56:45;6.00;;;3.10;;
4424;SDS011;2225;53.568;13.266;2023-04-23T10:59:25;5.13;;;2.60;;
4424;SDS011;2225;53.568;13.266;2023-04-23T11:01:55;6.87;;;3.40;;
4424;SDS011;2225;53.568;13.266;2023-04-23T11:04:25;7.30;;;3.30;;
4424;SDS011;2225;53.568;13.266;2023-04-23T11:06:56;7.50;;;3.43;;
4424;SDS011;2225;53.568;13.266;2023-04-23T11:12:10;8.07;;;3.00;;
4424;SDS011;2225;53.568;13.266;2023-04-23T11:14:50;5.30;;;2.70;;
4424;SDS011;2225;53.568;13.266;2023-04-23T11:25:18;6.80;;;4.00;;
4424;SDS011;2225;53.568;13.266;2023-04-23T11:27:48;8.17;;;4.03;;
4424;SDS011;2225;53.568;13.266;2023-04-23T11:30:21;6.93;;;4.10;;
4424;SDS011;2225;53.568;13.266;2023-04-23T11:32:51;7.27;;;3.93;;
4424;SDS011;2225;53.568;13.266;2023-04-23T11:35:20;9.43;;;4.67;;
4424;SDS011;2225;53.568;13.266;2023-04-23T11:37:53;8.10;;;4.30;;
4424;SDS011;2225;53.568;13.266;2023-04-23T11:40:21;9.73;;;5.30;;
4424;SDS011;2225;53.568;13.266;2023-04-23T11:42:50;8.57;;;4.97;;
4424;SDS011;2225;53.568;13.266;2023-04-23T11:45:23;11.20;;;6.23;;
4424;SDS011;2225;53.568;13.266;2023-04-23T11:47:52;10.27;;;6.03;;
4424;SDS011;2225;53.568;13.266;2023-04-23T11:50:22;8.10;;;4.00;;
4424;SDS011;2225;53.568;13.266;2023-04-23T11:53:05;9.93;;;5.23;;
4424;SDS011;2225;53.568;13.266;2023-04-23T11:55:35;9.30;;;5.27;;
4424;SDS011;2225;53.568;13.266;2023-04-23T11:58:03;10.40;;;6.17;;
4424;SDS011;2225;53.568;13.266;2023-04-23T12:00:30;9.00;;;5.80;;
4424;SDS011;2225;53.568;13.266;2023-04-23T12:02:58;8.57;;;5.03;;
4424;SDS011;2225;53.568;13.266;2023-04-23T12:05:31;7.80;;;4.50;;
4424;SDS011;2225;53.568;13.266;2023-04-23T12:08:06;8.57;;;5.23;;
4424;SDS011;2225;53.568;13.266;2023-04-23T12:11:10;7.37;;;4.50;;
4424;SDS011;2225;53.568;13.266;2023-04-23T12:13:31;9.90;;;5.13;;
4424;SDS011;2225;53.568;13.266;2023-04-23T12:16:02;9.00;;;5.07;;
4424;SDS011;2225;53.568;13.266;2023-04-23T12:18:31;7.60;;;4.30;;
4424;SDS011;2225;53.568;13.266;2023-04-23T12:21:07;8.60;;;4.70;;
4424;SDS011;2225;53.568;13.266;2023-04-23T12:23:37;9.23;;;5.83;;
4424;SDS011;2225;53.568;13.266;2023-04-23T12:26:12;9.00;;;4.60;;
4424;SDS011;2225;53.568;13.266;2023-04-23T12:28:50;8.73;;;4.60;;
4424;SDS011;2225;53.568;13.266;2023-04-23T12:31:25;9.33;;;5.33;;
4424;SDS011;2225;53.568;13.266;2023-04-23T12:34:01;8.30;;;4.33;;
4424;SDS011;2225;53.568;13.266;2023-04-23T12:36:36;16.80;;;7.27;;
4424;SDS011;2225;53.568;13.266;2023-04-23T12:39:18;6.93;;;4.13;;
4424;SDS011;2225;53.568;13.266;2023-04-23T12:41:45;7.83;;;4.50;;
4424;SDS011;2225;53.568;13.266;2023-04-23T12:44:15;7.40;;;3.70;;
4424;SDS011;2225;53.568;13.266;2023-04-23T12:46:41;6.10;;;3.53;;
4424;SDS011;2225;53.568;13.266;2023-04-23T12:49:08;6.27;;;3.50;;
4424;SDS011;2225;53.568;13.266;2023-04-23T12:51:35;7.80;;;4.20;;
4424;SDS011;2225;53.568;13.266;2023-04-23T12:54:03;8.13;;;4.13;;
4424;SDS011;2225;53.568;13.266;2023-04-23T12:56:29;7.20;;;3.97;;
4424;SDS011;2225;53.568;13.266;2023-04-23T12:58:56;8.20;;;4.20;;
4424;SDS011;2225;53.568;13.266;2023-04-23T13:01:27;10.30;;;4.37;;
4424;SDS011;2225;53.568;13.266;2023-04-23T13:03:54;12.73;;;4.83;;
4424;SDS011;2225;53.568;13.266;2023-04-23T13:06:22;6.90;;;3.90;;
4424;SDS011;2225;53.568;13.266;2023-04-23T13:08:49;5.70;;;3.17;;
4424;SDS011;2225;53.568;13.266;2023-04-23T13:11:16;8.23;;;3.90;;
4424;SDS011;2225;53.568;13.266;2023-04-23T13:13:43;6.73;;;3.73;;
4424;SDS011;2225;53.568;13.266;2023-04-23T13:16:09;6.33;;;3.33;;
4424;SDS011;2225;53.568;13.266;2023-04-23T13:18:37;8.23;;;3.47;;
4424;SDS011;2225;53.568;13.266;2023-04-23T13:21:03;7.10;;;3.07;;
4424;SDS011;2225;53.568;13.266;2023-04-23T13:23:31;6.80;;;2.93;;
4424;SDS011;2225;53.568;13.266;2023-04-23T13:25:57;8.77;;;2.80;;
4424;SDS011;2225;53.568;13.266;2023-04-23T13:28:25;13.30;;;2.77;;
4424;SDS011;2225;53.568;13.266;2023-04-23T13:30:52;5.70;;;2.60;;
4424;SDS011;2225;53.568;13.266;2023-04-23T13:33:19;6.27;;;3.17;;
4424;SDS011;2225;53.568;13.266;2023-04-23T13:35:46;6.07;;;2.30;;
4424;SDS011;2225;53.568;13.266;2023-04-23T13:38:13;6.33;;;2.80;;
4424;SDS011;2225;53.568;13.266;2023-04-23T13:40:40;9.20;;;2.97;;
4424;SDS011;2225;53.568;13.266;2023-04-23T13:43:07;5.37;;;2.50;;
4424;SDS011;2225;53.568;13.266;2023-04-23T13:45:34;7.17;;;3.20;;
4424;SDS011;2225;53.568;13.266;2023-04-23T13:48:01;5.90;;;2.30;;
4424;SDS011;2225;53.568;13.266;2023-04-23T13:50:28;6.10;;;2.57;;
4424;SDS011;2225;53.568;13.266;2023-04-23T13:52:55;6.70;;;2.90;;
4424;SDS011;2225;53.568;13.266;2023-04-23T13:55:21;7.30;;;3.13;;
4424;SDS011;2225;53.568;13.266;2023-04-23T13:57:48;5.90;;;2.30;;
4424;SDS011;2225;53.568;13.266;2023-04-23T14:00:15;5.90;;;2.60;;
4424;SDS011;2225;53.568;13.266;2023-04-23T14:02:43;7.30;;;3.43;;
4424;SDS011;2225;53.568;13.266;2023-04-23T14:05:10;6.70;;;2.60;;
4424;SDS011;2225;53.568;13.266;2023-04-23T14:07:37;6.53;;;2.90;;
4424;SDS011;2225;53.568;13.266;2023-04-23T14:10:13;6.17;;;3.00;;
4424;SDS011;2225;53.568;13.266;2023-04-23T14:12:40;6.90;;;3.53;;
4424;SDS011;2225;53.568;13.266;2023-04-23T14:15:07;7.20;;;3.70;;
4424;SDS011;2225;53.568;13.266;2023-04-23T14:17:35;8.23;;;4.90;;
4424;SDS011;2225;53.568;13.266;2023-04-23T14:20:04;7.20;;;3.47;;
4424;SDS011;2225;53.568;13.266;2023-04-23T14:22:32;6.20;;;3.43;;
4424;SDS011;2225;53.568;13.266;2023-04-23T14:25:03;5.30;;;2.80;;
4424;SDS011;2225;53.568;13.266;2023-04-23T14:27:38;10.03;;;3.23;;
4424;SDS011;2225;53.568;13.266;2023-04-23T14:30:19;5.70;;;2.80;;
4424;SDS011;2225;53.568;13.266;2023-04-23T14:32:46;6.40;;;3.30;;
4424;SDS011;2225;53.568;13.266;2023-04-23T14:35:15;7.47;;;3.00;;
4424;SDS011;2225;53.568;13.266;2023-04-23T14:37:42;5.90;;;2.70;;
4424;SDS011;2225;53.568;13.266;2023-04-23T14:40:11;7.10;;;3.60;;
4424;SDS011;2225;53.568;13.266;2023-04-23T14:42:40;11.13;;;3.93;;
4424;SDS011;2225;53.568;13.266;2023-04-23T14:45:08;9.47;;;3.70;;
4424;SDS011;2225;53.568;13.266;2023-04-23T14:47:35;6.63;;;3.63;;
4424;SDS011;2225;53.568;13.266;2023-04-23T14:50:02;9.97;;;4.23;;
4424;SDS011;2225;53.568;13.266;2023-04-23T14:52:29;7.47;;;3.63;;
4424;SDS011;2225;53.568;13.266;2023-04-23T14:54:56;7.80;;;4.20;;
4424;SDS011;2225;53.568;13.266;2023-04-23T14:57:23;7.73;;;4.03;;
4424;SDS011;2225;53.568;13.266;2023-04-23T14:59:50;7.60;;;4.00;;
4424;SDS011;2225;53.568;13.266;2023-04-23T15:02:17;7.77;;;3.93;;
4424;SDS011;2225;53.568;13.266;2023-04-23T15:04:44;7.77;;;3.70;;
4424;SDS011;2225;53.568;13.266;2023-04-23T15:07:11;6.70;;;3.67;;